Time;durP1;ratioP1;P1;durP2;ratioP2;P2;SDS_P1;SDS_P2;PMS_P1;PMS_P2;Temp;Humidity;BMP_temperature;BMP_pressure;BME280_temperature;BME280_humidity;BME280_pressure;Samples;Min_cycle;Max_cycle;Signal;HPM_P1;HPM_P2
2022/01/27 00:01:24;;;;;;;5.30;5.03;;;16.30;62.80;;;;;;5067067;28;44277;-74
2022/01/27 00:04:04;;;;;;;5.20;5.00;;;16.30;63.10;;;;;;5051991;28;44127;-74
2022/01/27 00:06:36;;;;;;;5.30;5.10;;;16.20;63.20;;;;;;5066494;28;43451;-74
2022/01/27 00:09:14;;;;;;;5.10;4.90;;;16.20;63.30;;;;;;5077228;28;44155;-74
2022/01/27 00:11:46;;;;;;;5.60;5.40;;;16.10;63.40;;;;;;5037106;28;44004;-74
2022/01/27 00:14:21;;;;;;;5.23;5.03;;;16.10;63.50;;;;;;5034262;28;44013;-74
2022/01/27 00:16:57;;;;;;;6.50;6.10;;;16.10;63.50;;;;;;5066704;28;43858;-74
2022/01/27 00:19:27;;;;;;;5.83;5.53;;;16.10;63.80;;;;;;5066639;28;44113;-74
2022/01/27 00:22:07;;;;;;;4.90;4.70;;;16.20;63.80;;;;;;5050664;28;43958;-74
2022/01/27 00:24:39;;;;;;;5.73;5.50;;;16.30;63.30;;;;;;5065425;28;46292;-74
2022/01/27 00:27:10;;;;;;;5.40;5.20;;;16.30;62.90;;;;;;5049501;28;44026;-74
2022/01/27 00:29:42;;;;;;;5.77;5.47;;;16.30;63.00;;;;;;5049018;28;43936;-74
2022/01/27 00:32:11;;;;;;;5.40;5.20;;;16.30;63.10;;;;;;5049910;28;43638;-74
2022/01/27 00:34:43;;;;;;;5.37;5.17;;;16.20;63.10;;;;;;5048990;28;44955;-74
2022/01/27 00:37:14;;;;;;;5.20;5.00;;;16.20;63.30;;;;;;5050005;28;43917;-74
2022/01/27 00:39:44;;;;;;;5.40;5.20;;;16.10;63.30;;;;;;5066526;28;44009;-74
2022/01/27 00:42:13;;;;;;;5.37;5.07;;;16.10;63.40;;;;;;5050364;28;43927;-74
2022/01/27 00:44:45;;;;;;;5.37;5.17;;;16.10;63.60;;;;;;5033407;28;43864;-74
2022/01/27 00:47:15;;;;;;;5.40;5.20;;;16.10;63.70;;;;;;5049913;28;44559;-74
2022/01/27 00:49:45;;;;;;;5.37;5.10;;;16.00;63.60;;;;;;5033458;28;44064;-74
2022/01/27 00:52:22;;;;;;;5.47;5.27;;;16.00;63.60;;;;;;5033489;28;43964;-74
2022/01/27 00:54:53;;;;;;;5.70;5.40;;;16.00;63.70;;;;;;5049772;28;44196;-74
2022/01/27 00:57:36;;;;;;;5.33;5.13;;;16.00;63.70;;;;;;5033377;28;44001;-74
2022/01/27 01:00:12;;;;;;;5.57;5.37;;;16.00;63.90;;;;;;5036414;28;43392;-74
2022/01/27 01:02:49;;;;;;;6.07;5.77;;;16.10;63.80;;;;;;5066120;28;43979;-74
2022/01/27 01:05:34;;;;;;;5.37;5.07;;;16.30;63.40;;;;;;5050463;28;45947;-74
2022/01/27 01:08:33;;;;;;;5.80;5.50;;;16.40;62.90;;;;;;5066154;28;45647;-74
2022/01/27 01:14:23;;;;;;;5.47;5.27;;;16.50;62.20;;;;;;5065960;28;44109;-74
2022/01/27 01:17:01;;;;;;;5.53;5.23;;;16.40;62.30;;;;;;5049097;28;45398;-74
2022/01/27 01:19:42;;;;;;;5.03;4.83;;;16.40;62.60;;;;;;5066897;28;44653;-73
2022/01/27 01:30:48;;;;;;;5.47;5.27;;;16.10;63.10;;;;;;5064995;28;44052;-74
2022/01/27 01:33:27;;;;;;;5.20;5.00;;;16.10;63.30;;;;;;5051842;28;44079;-74
2022/01/27 01:36:12;;;;;;;5.53;5.23;;;16.10;63.40;;;;;;5049433;28;43910;-74
2022/01/27 01:38:41;;;;;;;5.43;5.23;;;16.10;63.50;;;;;;5060949;28;44005;-74
2022/01/27 01:41:11;;;;;;;5.30;5.10;;;16.10;63.70;;;;;;5065565;28;44031;-74
2022/01/27 01:43:41;;;;;;;5.33;5.13;;;16.20;63.50;;;;;;5048647;28;43968;-74
2022/01/27 01:46:10;;;;;;;5.40;5.20;;;16.30;63.20;;;;;;5049832;28;44023;-74
2022/01/27 01:48:40;;;;;;;5.10;4.90;;;16.30;62.90;;;;;;5065954;28;44117;-74
2022/01/27 01:51:09;;;;;;;4.97;4.77;;;16.20;62.90;;;;;;5065969;28;43458;-74
2022/01/27 01:53:38;;;;;;;5.53;5.33;;;16.20;63.00;;;;;;5048399;28;43469;-74
2022/01/27 01:56:08;;;;;;;5.33;5.13;;;16.20;63.10;;;;;;5048983;28;43948;-74
2022/01/27 01:58:37;;;;;;;5.50;5.30;;;16.10;63.20;;;;;;5047901;28;44053;-74
2022/01/27 02:01:11;;;;;;;5.10;4.90;;;16.10;63.30;;;;;;5034442;28;44012;-74
2022/01/27 02:03:44;;;;;;;5.47;5.20;;;16.10;63.40;;;;;;5065759;28;44028;-74
2022/01/27 02:06:19;;;;;;;5.83;5.53;;;16.10;63.50;;;;;;5065480;28;44109;-74
2022/01/27 02:09:01;;;;;;;4.87;4.67;;;16.00;63.50;;;;;;5048972;28;44186;-74
2022/01/27 02:19:53;;;;;;;5.10;4.90;;;16.00;63.70;;;;;;5065790;28;44109;-74
2022/01/27 02:22:23;;;;;;;5.30;5.07;;;16.00;63.80;;;;;;5065742;28;44018;-74
2022/01/27 02:24:53;;;;;;;4.90;4.70;;;16.20;63.60;;;;;;5048456;28;44104;-74
2022/01/27 02:27:22;;;;;;;4.97;4.77;;;16.30;63.10;;;;;;5058339;28;43925;-74
2022/01/27 02:29:53;;;;;;;4.93;4.73;;;16.40;62.60;;;;;;5058223;28;44039;-74
2022/01/27 02:32:24;;;;;;;4.63;4.43;;;16.50;62.40;;;;;;5075260;27;44705;-74
2022/01/27 02:34:55;;;;;;;4.73;4.53;;;16.50;62.30;;;;;;5031871;28;43976;-74
2022/01/27 02:37:25;;;;;;;4.73;4.53;;;16.40;62.30;;;;;;5065186;28;43964;-74
2022/01/27 02:39:55;;;;;;;4.57;4.43;;;16.40;62.50;;;;;;5047617;28;45520;-74
2022/01/27 02:42:27;;;;;;;4.80;4.60;;;16.30;62.60;;;;;;5048281;28;44158;-74
2022/01/27 02:45:05;;;;;;;4.83;4.60;;;16.30;62.90;;;;;;5064349;28;44035;-74
2022/01/27 02:47:34;;;;;;;5.03;4.83;;;16.20;63.00;;;;;;5065070;28;44187;-74
2022/01/27 02:50:06;;;;;;;4.60;4.40;;;16.10;63.00;;;;;;5064132;28;45103;-74
2022/01/27 02:52:35;;;;;;;4.33;4.20;;;16.10;63.10;;;;;;5063905;28;43862;-74
2022/01/27 02:55:05;;;;;;;4.80;4.60;;;16.10;63.20;;;;;;5047774;28;43968;-74
2022/01/27 02:57:35;;;;;;;4.50;4.30;;;16.10;63.30;;;;;;5047964;28;44033;-74
2022/01/27 03:00:07;;;;;;;4.67;4.47;;;16.10;63.40;;;;;;5047508;28;46671;-74
2022/01/27 03:02:37;;;;;;;5.40;5.10;;;16.10;63.60;;;;;;5057404;28;44741;-74
2022/01/27 03:05:08;;;;;;;4.80;4.60;;;16.20;63.40;;;;;;5058445;28;43881;-74
2022/01/27 03:07:37;;;;;;;4.90;4.70;;;16.30;63.10;;;;;;5064662;28;44020;-74
2022/01/27 03:10:07;;;;;;;4.63;4.43;;;16.30;62.80;;;;;;5048795;28;45136;-74
2022/01/27 03:12:38;;;;;;;4.40;4.30;;;16.20;62.80;;;;;;5064465;28;44212;-74
2022/01/27 03:15:11;;;;;;;4.60;4.40;;;16.20;63.00;;;;;;5048980;28;44000;-74
2022/01/27 03:17:40;;;;;;;4.77;4.57;;;16.10;63.00;;;;;;5064703;28;44149;-73
2022/01/27 03:20:11;;;;;;;4.50;4.30;;;16.10;63.20;;;;;;5032147;28;43837;-74
2022/01/27 03:22:41;;;;;;;4.13;4.03;;;16.10;63.40;;;;;;5063300;28;43450;-74
2022/01/27 03:25:11;;;;;;;4.20;4.10;;;16.00;63.30;;;;;;5068456;28;44187;-74
2022/01/27 03:27:46;;;;;;;4.83;4.63;;;16.00;63.50;;;;;;5051047;28;43949;-74
2022/01/27 03:30:17;;;;;;;4.50;4.33;;;16.00;63.60;;;;;;5067156;28;44263;-74
2022/01/27 03:32:47;;;;;;;4.20;4.10;;;16.00;63.70;;;;;;5034232;28;44088;-74
2022/01/27 03:35:18;;;;;;;4.13;4.03;;;15.90;63.60;;;;;;5066523;28;44109;-74
2022/01/27 03:37:46;;;;;;;4.13;4.03;;;15.90;63.70;;;;;;5051892;28;43891;-73
2022/01/27 03:40:17;;;;;;;5.00;4.70;;;15.90;63.70;;;;;;5051153;28;43905;-73
2022/01/27 03:42:54;;;;;;;4.47;4.27;;;15.90;64.00;;;;;;5050530;28;43909;-73
2022/01/27 03:45:24;;;;;;;4.20;4.03;;;16.00;63.90;;;;;;5052354;28;43988;-73
2022/01/27 03:47:53;;;;;;;4.40;4.30;;;16.20;63.60;;;;;;5050930;28;43970;-73
2022/01/27 03:50:24;;;;;;;4.70;4.50;;;16.30;63.00;;;;;;5066844;28;44085;-73
2022/01/27 03:52:54;;;;;;;4.30;4.20;;;16.40;62.60;;;;;;5066979;28;43980;-73
2022/01/27 03:55:24;;;;;;;4.70;4.50;;;16.40;62.30;;;;;;5034409;28;43963;-73
2022/01/27 03:57:54;;;;;;;4.13;4.03;;;16.40;62.30;;;;;;5067686;28;43997;-73
2022/01/27 04:00:23;;;;;;;4.30;4.10;;;16.30;62.40;;;;;;5034277;28;45127;-73
2022/01/27 04:03:00;;;;;;;4.33;4.17;;;16.30;62.60;;;;;;5066990;28;44016;-72
2022/01/27 04:05:37;;;;;;;4.07;3.87;;;16.20;62.70;;;;;;5051684;28;44272;-73
2022/01/27 04:08:08;;;;;;;4.27;4.17;;;16.20;63.00;;;;;;5067373;28;43858;-73
2022/01/27 04:10:37;;;;;;;4.00;3.90;;;16.10;63.00;;;;;;5066452;28;44078;-73
2022/01/27 04:13:07;;;;;;;4.23;4.10;;;16.10;63.10;;;;;;5033806;28;43987;-73
2022/01/27 04:15:37;;;;;;;4.37;4.17;;;16.10;63.20;;;;;;5066472;28;43398;-73
2022/01/27 04:18:07;;;;;;;4.00;3.90;;;16.10;63.30;;;;;;5067098;28;44358;-73
2022/01/27 04:20:37;;;;;;;4.20;4.10;;;16.10;63.40;;;;;;5049679;28;44133;-73
2022/01/27 04:23:07;;;;;;;4.30;4.10;;;16.00;63.50;;;;;;5060100;28;44264;-74
2022/01/27 04:25:38;;;;;;;4.10;4.00;;;16.10;63.50;;;;;;5076634;28;43942;-73
2022/01/27 04:28:11;;;;;;;3.87;3.77;;;16.20;63.30;;;;;;5050439;28;43834;-73
2022/01/27 04:30:41;;;;;;;4.37;4.17;;;16.30;62.90;;;;;;5050367;28;43988;-73
2022/01/27 04:33:10;;;;;;;4.00;3.90;;;16.20;62.70;;;;;;5066090;28;43399;-73
2022/01/27 04:35:47;;;;;;;3.93;3.83;;;16.20;62.80;;;;;;5066251;28;44042;-73
2022/01/27 04:41:13;;;;;;;4.13;3.97;;;16.10;63.00;;;;;;5026182;28;44143;-73
2022/01/27 04:43:48;;;;;;;3.60;3.50;;;16.10;63.20;;;;;;5061507;28;43464;-73
2022/01/27 04:46:27;;;;;;;4.23;4.03;;;16.10;63.30;;;;;;5065901;28;44042;-74
2022/01/27 04:49:01;;;;;;;3.77;3.67;;;16.00;63.30;;;;;;5051136;28;43967;-73
2022/01/27 04:51:31;;;;;;;4.33;4.13;;;16.00;63.40;;;;;;5050073;28;44087;-73
2022/01/27 04:54:06;;;;;;;4.10;3.90;;;16.00;63.50;;;;;;5049488;28;44552;-73
2022/01/27 04:56:38;;;;;;;4.17;4.00;;;16.00;63.50;;;;;;5050005;28;44035;-73
2022/01/27 04:59:14;;;;;;;4.67;4.47;;;16.00;63.60;;;;;;5044290;28;44154;-73
2022/01/27 05:01:47;;;;;;;3.90;3.80;;;16.00;63.60;;;;;;5065777;28;45422;-74
2022/01/27 05:04:19;;;;;;;4.10;4.00;;;16.00;63.80;;;;;;5050004;28;43520;-73
2022/01/27 05:06:53;;;;;;;3.80;3.70;;;16.00;63.60;;;;;;5049591;28;43987;-73
2022/01/27 05:09:23;;;;;;;4.20;4.00;;;16.20;63.30;;;;;;5066653;28;44010;-73
2022/01/27 05:12:11;;;;;;;4.23;4.03;;;16.30;62.80;;;;;;5066165;28;43833;-73
2022/01/27 05:14:41;;;;;;;3.97;3.87;;;16.40;62.30;;;;;;5058734;28;43840;-73
2022/01/27 05:17:11;;;;;;;3.60;3.50;;;16.40;62.20;;;;;;5066129;28;43992;-73
2022/01/27 05:19:41;;;;;;;4.17;3.97;;;16.40;62.30;;;;;;5050441;28;44241;-74
2022/01/27 05:22:13;;;;;;;4.30;4.10;;;16.30;62.40;;;;;;5049620;28;45754;-76
2022/01/27 05:24:44;;;;;;;3.67;3.57;;;16.20;62.50;;;;;;5065541;28;44013;-75
2022/01/27 05:27:14;;;;;;;3.70;3.60;;;16.20;62.70;;;;;;5049400;28;43344;-74
2022/01/27 05:29:42;;;;;;;3.63;3.53;;;16.10;62.90;;;;;;5049577;28;43992;-74
2022/01/27 05:32:12;;;;;;;3.73;3.63;;;16.10;63.00;;;;;;5048493;28;46376;-74
2022/01/27 05:34:41;;;;;;;3.93;3.83;;;16.10;63.20;;;;;;5065535;28;44619;-74
2022/01/27 05:37:20;;;;;;;3.50;3.40;;;16.10;63.20;;;;;;5050123;28;44314;-74
2022/01/27 05:39:49;;;;;;;3.80;3.70;;;16.00;63.20;;;;;;5065520;28;43819;-74
2022/01/27 05:42:19;;;;;;;3.40;3.30;;;16.00;63.20;;;;;;5050068;28;45843;-74
2022/01/27 05:44:48;;;;;;;4.10;3.90;;;16.00;63.50;;;;;;5064977;28;43982;-74
2022/01/27 05:47:18;;;;;;;3.53;3.43;;;16.00;63.50;;;;;;5065156;28;43321;-74
2022/01/27 05:49:47;;;;;;;3.83;3.70;;;16.10;63.90;;;;;;5049195;28;44043;-74
2022/01/27 05:52:22;;;;;;;3.50;3.40;;;16.30;62.80;;;;;;5065772;28;44057;-74
2022/01/27 05:54:59;;;;;;;3.20;3.10;;;16.30;62.40;;;;;;5063726;28;43311;-74
2022/01/27 05:57:30;;;;;;;2.93;2.83;;;16.30;62.40;;;;;;5064873;28;44002;-74
2022/01/27 06:00:05;;;;;;;3.47;3.37;;;16.30;62.50;;;;;;5049418;28;44117;-74
2022/01/27 06:02:39;;;;;;;3.53;3.40;;;16.20;62.60;;;;;;5063001;28;43722;-74
2022/01/27 06:05:11;;;;;;;3.17;3.07;;;16.10;62.70;;;;;;5064910;28;44052;-74
2022/01/27 06:07:41;;;;;;;3.33;3.23;;;16.10;62.90;;;;;;5065829;28;43448;-74
2022/01/27 06:10:12;;;;;;;3.17;3.07;;;16.10;63.10;;;;;;5065511;28;44043;-74
2022/01/27 06:12:57;;;;;;;3.13;2.93;;;16.00;63.10;;;;;;5047827;28;44214;-73
2022/01/27 06:15:26;;;;;;;3.33;3.23;;;16.00;63.20;;;;;;5046895;28;44105;-74
2022/01/27 06:18:03;;;;;;;3.17;3.07;;;16.00;63.30;;;;;;5066207;28;44446;-74
2022/01/27 06:20:50;;;;;;;3.20;3.10;;;16.00;63.40;;;;;;5065379;28;44015;-74
2022/01/27 06:23:31;;;;;;;3.03;2.93;;;16.00;63.40;;;;;;5059712;28;44007;-73
2022/01/27 06:26:08;;;;;;;3.30;3.20;;;16.00;63.60;;;;;;5064515;28;44032;-74
2022/01/27 06:28:44;;;;;;;3.63;3.43;;;16.00;63.60;;;;;;5048249;28;44012;-74
2022/01/27 06:31:24;;;;;;;3.50;3.40;;;16.10;63.30;;;;;;5064851;28;44262;-74
2022/01/27 06:34:02;;;;;;;3.50;3.30;;;16.30;62.90;;;;;;5064755;28;44059;-74
2022/01/27 06:36:35;;;;;;;3.10;3.00;;;16.40;62.40;;;;;;5062936;28;43955;-74
2022/01/27 06:39:09;;;;;;;3.40;3.30;;;16.40;62.30;;;;;;5080747;28;43922;-74
2022/01/27 06:41:37;;;;;;;2.93;2.83;;;16.30;62.30;;;;;;5082644;28;43820;-74
2022/01/27 06:44:06;;;;;;;3.00;2.90;;;16.30;62.50;;;;;;5048220;28;45144;-74
2022/01/27 06:46:35;;;;;;;3.00;2.90;;;16.20;62.70;;;;;;5048529;28;44007;-74
2022/01/27 06:49:04;;;;;;;3.00;2.90;;;16.10;62.80;;;;;;5049093;28;44062;-74
2022/01/27 06:51:33;;;;;;;2.93;2.87;;;16.10;62.90;;;;;;5025652;28;43961;-74
2022/01/27 06:54:02;;;;;;;3.20;3.10;;;16.10;63.10;;;;;;5048415;28;45694;-74
2022/01/27 06:56:32;;;;;;;3.63;3.43;;;16.00;63.10;;;;;;5058765;28;44052;-74
2022/01/27 06:59:02;;;;;;;3.07;2.97;;;16.00;63.20;;;;;;5047889;28;43992;-74
2022/01/27 07:01:32;;;;;;;3.37;3.27;;;16.00;63.30;;;;;;5048451;28;43951;-74
2022/01/27 07:04:01;;;;;;;3.23;3.13;;;16.00;63.40;;;;;;5064443;28;47008;-74
2022/01/27 07:06:32;;;;;;;2.93;2.83;;;16.00;63.50;;;;;;5048134;28;43960;-74
2022/01/27 07:09:01;;;;;;;3.00;2.90;;;16.00;63.60;;;;;;5047818;28;43427;-74
2022/01/27 07:11:31;;;;;;;3.10;3.00;;;16.10;63.50;;;;;;5064321;28;43954;-74
2022/01/27 07:14:00;;;;;;;3.13;3.03;;;16.10;62.90;;;;;;5047079;28;45165;-75
2022/01/27 07:16:31;;;;;;;3.30;3.20;;;16.20;62.70;;;;;;5063636;28;44015;-74
2022/01/27 07:19:00;;;;;;;3.13;3.03;;;16.20;62.80;;;;;;5064628;28;43952;-74
2022/01/27 07:21:29;;;;;;;3.30;3.20;;;16.10;62.90;;;;;;5063967;28;43968;-73
2022/01/27 07:23:58;;;;;;;3.10;3.00;;;16.10;63.10;;;;;;5030818;28;44289;-75
2022/01/27 07:26:27;;;;;;;3.00;2.90;;;16.10;63.10;;;;;;5065861;28;44006;-74
2022/01/27 07:29:00;;;;;;;3.10;3.00;;;16.00;63.20;;;;;;5063489;28;43952;-74
2022/01/27 07:31:42;;;;;;;3.10;3.00;;;16.00;63.20;;;;;;5065355;28;43986;-74
2022/01/27 07:34:13;;;;;;;3.20;3.10;;;16.00;63.30;;;;;;5063395;28;44076;-75
2022/01/27 07:36:54;;;;;;;2.93;2.83;;;15.90;63.30;;;;;;5079887;28;43816;-74
2022/01/27 07:39:23;;;;;;;2.80;2.70;;;15.90;64.10;;;;;;5060677;28;44039;-74
2022/01/27 07:41:56;;;;;;;2.80;2.70;;;15.90;63.40;;;;;;5016137;28;43599;-74
2022/01/27 07:44:30;;;;;;;2.90;2.80;;;15.90;63.40;;;;;;5064865;28;43940;-74
2022/01/27 07:47:04;;;;;;;3.00;2.90;;;15.90;63.50;;;;;;5063304;28;43991;-74
2022/01/27 07:49:37;;;;;;;3.00;2.90;;;15.90;63.60;;;;;;5063759;28;44137;-74
2022/01/27 07:52:23;;;;;;;3.20;3.10;;;16.00;63.70;;;;;;5059220;28;43900;-74
2022/01/27 07:54:53;;;;;;;3.27;3.17;;;16.10;63.40;;;;;;5045748;28;44008;-74
2022/01/27 07:57:21;;;;;;;3.07;2.97;;;16.30;62.90;;;;;;5065003;28;43787;-74
2022/01/27 07:59:52;;;;;;;3.00;2.90;;;16.40;62.50;;;;;;5047626;28;43981;-74
2022/01/27 08:02:27;;;;;;;3.30;3.13;;;16.40;62.10;;;;;;5047813;28;44359;-74
2022/01/27 08:04:59;;;;;;;3.17;3.07;;;16.30;62.10;;;;;;5063051;28;45462;-75
2022/01/27 08:07:31;;;;;;;3.27;3.17;;;16.30;62.20;;;;;;5047265;28;44082;-74
2022/01/27 08:10:01;;;;;;;3.13;3.03;;;16.20;62.40;;;;;;5047716;28;43944;-74
2022/01/27 08:12:31;;;;;;;2.93;2.83;;;16.20;62.60;;;;;;5050315;28;44074;-74
2022/01/27 08:15:02;;;;;;;3.30;3.20;;;16.10;63.40;;;;;;5066677;28;43910;-77
2022/01/27 08:17:31;;;;;;;3.03;2.93;;;16.10;62.90;;;;;;5050264;28;44002;-74
2022/01/27 08:20:08;;;;;;;3.03;2.93;;;16.10;62.90;;;;;;5017314;28;43945;-73
2022/01/27 08:22:43;;;;;;;3.23;3.13;;;16.00;63.00;;;;;;5050624;28;44308;-75
2022/01/27 08:25:12;;;;;;;2.80;2.80;;;16.00;63.10;;;;;;5077512;28;43987;-74
2022/01/27 08:27:43;;;;;;;3.13;3.03;;;16.00;63.20;;;;;;5049924;28;44317;-74
2022/01/27 08:30:16;;;;;;;3.33;3.23;;;16.00;63.30;;;;;;5067059;28;43374;-73
2022/01/27 08:32:47;;;;;;;2.80;2.80;;;16.00;63.40;;;;;;5067083;28;43949;-73
2022/01/27 08:35:17;;;;;;;3.33;3.23;;;16.10;63.10;;;;;;5050090;28;44027;-73
2022/01/27 08:37:45;;;;;;;3.00;2.90;;;16.20;62.70;;;;;;5049892;28;43921;-73
2022/01/27 08:40:15;;;;;;;3.23;3.13;;;16.20;62.60;;;;;;5049792;28;43954;-73
2022/01/27 08:43:03;;;;;;;3.03;2.93;;;16.10;62.60;;;;;;5066722;28;43924;-73
2022/01/27 08:45:34;;;;;;;3.17;3.07;;;16.10;62.70;;;;;;5065963;28;44047;-74
2022/01/27 08:48:05;;;;;;;3.17;3.07;;;16.10;62.80;;;;;;5050205;28;43977;-73
2022/01/27 08:50:36;;;;;;;3.10;3.00;;;16.00;62.90;;;;;;5050149;28;44087;-75
2022/01/27 08:53:40;;;;;;;3.17;3.07;;;16.00;63.10;;;;;;5060405;28;43474;-72
2022/01/27 08:56:13;;;;;;;3.20;3.10;;;16.00;63.10;;;;;;5066878;28;43985;-74
2022/01/27 08:58:43;;;;;;;3.40;3.30;;;16.00;63.30;;;;;;5035022;28;44008;-77
2022/01/27 09:01:15;;;;;;;3.43;3.33;;;15.90;63.10;;;;;;5066409;28;44017;-74
2022/01/27 09:03:45;;;;;;;3.43;3.33;;;15.90;63.20;;;;;;5049968;28;44051;-73
2022/01/27 09:06:14;;;;;;;3.90;3.67;;;15.90;63.20;;;;;;5048937;28;45453;-74
2022/01/27 09:08:43;;;;;;;5.97;3.87;;;15.90;63.20;;;;;;5048843;28;43825;-73
2022/01/27 09:11:12;;;;;;;5.37;4.00;;;15.90;63.30;;;;;;5050157;28;43889;-75
2022/01/27 09:13:42;;;;;;;5.67;4.57;;;16.00;63.60;;;;;;5049772;28;43586;-73
2022/01/27 09:16:12;;;;;;;8.07;4.63;;;16.10;63.30;;;;;;5065541;28;44222;-74
2022/01/27 09:18:41;;;;;;;9.77;5.40;;;16.20;62.80;;;;;;5065555;28;44042;-75
2022/01/27 09:21:15;;;;;;;17.23;5.57;;;16.40;62.50;;;;;;5033553;28;44259;-75
2022/01/27 09:23:43;;;;;;;18.47;6.80;;;16.50;61.90;;;;;;5034190;28;44007;-75
2022/01/27 09:26:38;;;;;;;23.73;6.80;;;16.40;61.40;;;;;;5017648;28;44115;-74
2022/01/27 09:29:02;;;;;;;25.13;6.57;;;16.40;61.70;;;;;;5038859;28;44021;-73
2022/01/27 09:31:33;;;;;;;21.33;6.47;;;16.30;61.80;;;;;;5065729;28;44178;-75
2022/01/27 09:34:02;;;;;;;20.27;6.60;;;16.20;62.10;;;;;;5067305;28;43434;-73
2022/01/27 09:36:32;;;;;;;27.47;7.00;;;16.20;62.40;;;;;;5059415;28;45003;-73
2022/01/27 09:39:02;;;;;;;20.10;7.50;;;16.10;62.50;;;;;;5043257;28;44091;-71
2022/01/27 09:41:32;;;;;;;25.83;7.60;;;16.10;62.60;;;;;;5049001;28;43450;-72
2022/01/27 09:44:01;;;;;;;22.93;7.17;;;16.00;62.50;;;;;;5033484;28;43463;-71
2022/01/27 09:46:30;;;;;;;16.47;6.93;;;16.00;62.60;;;;;;5048601;28;45703;-71
2022/01/27 09:49:07;;;;;;;20.07;6.93;;;16.00;62.70;;;;;;5065051;28;43991;-72
2022/01/27 09:51:41;;;;;;;29.20;8.17;;;16.00;62.90;;;;;;5065288;28;44015;-72
2022/01/27 09:57:25;;;;;;;21.50;7.37;;;16.00;63.00;;;;;;5064498;28;44075;-73
2022/01/27 09:59:55;;;;;;;19.07;7.00;;;16.10;62.40;;;;;;5065080;28;43912;-72
2022/01/27 10:02:27;;;;;;;20.37;6.50;;;16.20;62.20;;;;;;5065583;28;44031;-75
2022/01/27 10:04:59;;;;;;;19.10;7.33;;;16.20;62.30;;;;;;5048985;28;44524;-75
2022/01/27 10:07:33;;;;;;;16.33;6.87;;;16.10;62.40;;;;;;5064956;28;45459;-77
2022/01/27 10:10:10;;;;;;;13.43;7.03;;;16.10;62.50;;;;;;5044522;28;44025;-76
2022/01/27 10:12:42;;;;;;;15.73;6.30;;;16.10;62.70;;;;;;5064398;28;43890;-76
2022/01/27 10:15:14;;;;;;;13.07;6.47;;;16.00;62.80;;;;;;5064962;28;44016;-77
2022/01/27 10:18:05;;;;;;;15.00;6.30;;;16.00;62.90;;;;;;5067079;28;43849;-80
2022/01/27 10:20:36;;;;;;;11.47;6.63;;;16.00;63.00;;;;;;5032329;28;43910;-80
2022/01/27 10:23:14;;;;;;;13.13;6.43;;;16.00;63.10;;;;;;5058768;28;44010;-79
2022/01/27 10:25:52;;;;;;;13.53;6.33;;;15.90;63.00;;;;;;5048923;28;44186;-78
2022/01/27 10:28:36;;;;;;;13.67;6.63;;;15.90;63.00;;;;;;5049823;28;44157;-79
2022/01/27 10:31:06;;;;;;;10.10;6.23;;;15.90;63.10;;;;;;5064455;28;43972;-77
2022/01/27 10:33:52;;;;;;;7.63;6.33;;;15.90;63.10;;;;;;5063757;28;44062;-78
2022/01/27 10:36:24;;;;;;;12.00;6.93;;;15.90;63.30;;;;;;5063936;28;43953;-78
2022/01/27 10:38:57;;;;;;;12.57;6.43;;;16.00;63.20;;;;;;5064579;28;44312;-77
2022/01/27 10:41:27;;;;;;;13.80;6.23;;;16.20;62.80;;;;;;5064573;28;43516;-77
2022/01/27 10:44:11;;;;;;;9.30;6.67;;;16.30;62.30;;;;;;5064669;28;43406;-78
2022/01/27 10:46:46;;;;;;;11.30;6.10;;;16.40;61.90;;;;;;5065066;28;43981;-78
2022/01/27 10:49:25;;;;;;;11.30;6.07;;;16.40;61.60;;;;;;5064243;28;44118;-76
2022/01/27 10:51:57;;;;;;;8.10;5.60;;;16.30;61.80;;;;;;5046836;28;43941;-81
2022/01/27 10:54:35;;;;;;;6.10;5.50;;;16.30;62.10;;;;;;5066187;28;44094;-81
2022/01/27 10:57:06;;;;;;;8.40;5.67;;;16.20;62.30;;;;;;5050485;28;44142;-79
2022/01/27 10:59:34;;;;;;;7.53;5.33;;;16.10;62.40;;;;;;5064565;28;43981;-78
2022/01/27 11:02:06;;;;;;;7.67;5.70;;;16.10;62.70;;;;;;5017057;28;44350;-78
2022/01/27 11:04:37;;;;;;;7.47;5.77;;;16.00;62.70;;;;;;5066086;28;43948;-77
2022/01/27 11:07:09;;;;;;;10.17;5.60;;;16.00;62.90;;;;;;5048159;28;44197;-77
2022/01/27 11:09:41;;;;;;;6.10;5.50;;;16.00;62.90;;;;;;5032580;28;43984;-78
2022/01/27 11:12:15;;;;;;;9.87;6.20;;;16.00;63.00;;;;;;5049761;28;44651;-79
2022/01/27 11:14:48;;;;;;;8.90;5.83;;;15.90;62.90;;;;;;5065646;28;44017;-80
2022/01/27 11:17:20;;;;;;;6.73;6.00;;;16.00;63.30;;;;;;5049612;28;44205;-78
2022/01/27 11:20:16;;;;;;;6.47;5.40;;;16.10;63.10;;;;;;5064816;28;45543;-77
2022/01/27 11:23:11;;;;;;;8.27;5.43;;;16.10;62.40;;;;;;5064433;28;44010;-78
2022/01/27 11:25:53;;;;;;;6.23;5.43;;;16.10;62.40;;;;;;5059167;28;43959;-80
2022/01/27 11:28:22;;;;;;;6.13;5.57;;;16.10;62.60;;;;;;5063274;28;44159;-81
2022/01/27 11:31:01;;;;;;;5.60;5.03;;;16.10;62.80;;;;;;5049504;28;45322;-78
2022/01/27 11:34:05;;;;;;;5.93;5.40;;;16.00;62.70;;;;;;5067111;28;44179;-82
2022/01/27 11:36:36;;;;;;;5.90;5.40;;;16.00;63.60;;;;;;5064819;28;44086;-79
2022/01/27 11:39:12;;;;;;;6.10;5.57;;;15.90;63.00;;;;;;5065766;28;44014;-78
2022/01/27 11:41:47;;;;;;;5.87;5.20;;;15.90;63.10;;;;;;5064635;28;44123;-80
2022/01/27 11:44:32;;;;;;;5.60;5.17;;;15.90;63.10;;;;;;5035336;28;43877;-79
2022/01/27 11:47:22;;;;;;;7.13;5.50;;;15.90;63.10;;;;;;5067041;28;43370;-77
2022/01/27 11:49:59;;;;;;;6.27;5.67;;;15.90;63.20;;;;;;5069496;28;44158;-81
2022/01/27 11:52:29;;;;;;;5.33;4.93;;;15.90;63.30;;;;;;5063190;28;44245;-77
2022/01/27 11:55:40;;;;;;;5.87;5.37;;;15.90;63.30;;;;;;5050300;28;43981;-78
2022/01/27 11:58:17;;;;;;;5.97;5.47;;;15.90;63.50;;;;;;5061640;28;44000;-79
2022/01/27 12:01:17;;;;;;;6.43;5.23;;;16.00;63.20;;;;;;5050870;28;44108;-78
2022/01/27 12:04:23;;;;;;;6.23;5.63;;;16.20;62.70;;;;;;5068032;28;44035;-78
2022/01/27 12:07:07;;;;;;;6.07;5.57;;;16.30;62.20;;;;;;5066242;28;45016;-78
2022/01/27 12:09:38;;;;;;;5.37;4.97;;;16.30;61.90;;;;;;5051218;28;43984;-79
2022/01/27 12:12:24;;;;;;;5.63;5.07;;;16.30;61.90;;;;;;5073107;28;43615;-79
2022/01/27 12:15:11;;;;;;;5.17;4.77;;;16.20;62.10;;;;;;5050931;28;44072;-79
2022/01/27 12:17:41;;;;;;;5.63;5.13;;;16.20;62.40;;;;;;5052038;28;43934;-81
2022/01/27 12:20:13;;;;;;;5.23;4.90;;;16.10;62.50;;;;;;5034591;28;43410;-75
2022/01/27 12:23:15;;;;;;;5.23;4.93;;;16.10;62.80;;;;;;5066607;28;44264;-75
2022/01/27 12:25:51;;;;;;;5.30;4.90;;;16.00;62.80;;;;;;5065728;28;44023;-75
2022/01/27 12:28:23;;;;;;;5.10;4.70;;;16.00;62.90;;;;;;5050796;28;43826;-74
2022/01/27 12:30:59;;;;;;;5.30;4.97;;;16.00;63.00;;;;;;5066586;28;43928;-73
2022/01/27 12:33:29;;;;;;;4.77;4.47;;;16.00;63.10;;;;;;5060040;28;43649;-73
2022/01/27 12:36:05;;;;;;;5.33;4.93;;;15.90;63.10;;;;;;5077361;28;46290;-73
2022/01/27 12:38:41;;;;;;;5.83;5.33;;;15.90;63.20;;;;;;5066037;28;44000;-74
2022/01/27 12:41:13;;;;;;;5.13;4.83;;;16.00;63.30;;;;;;5066556;28;43984;-73
2022/01/27 12:43:46;;;;;;;5.30;5.00;;;16.10;62.80;;;;;;5049710;28;43979;-73
2022/01/27 12:46:15;;;;;;;5.40;5.00;;;16.10;62.50;;;;;;5050086;28;44793;-74
2022/01/27 12:48:49;;;;;;;5.10;4.80;;;16.10;62.60;;;;;;5032980;28;43472;-74
2022/01/27 12:52:01;;;;;;;5.27;4.90;;;16.10;62.70;;;;;;5066322;28;44023;-76
2022/01/27 12:54:32;;;;;;;6.07;5.47;;;16.00;62.90;;;;;;5048398;28;43460;-73
2022/01/27 12:57:01;;;;;;;4.77;4.47;;;16.00;63.00;;;;;;5048798;28;43937;-72
2022/01/27 12:59:33;;;;;;;5.47;5.10;;;16.00;63.00;;;;;;5032858;28;43985;-73
2022/01/27 13:02:03;;;;;;;5.13;4.83;;;16.00;63.20;;;;;;5066397;28;43874;-72
2022/01/27 13:04:33;;;;;;;5.33;5.03;;;15.90;63.10;;;;;;5065973;28;44074;-72
2022/01/27 13:07:02;;;;;;;5.40;4.97;;;15.90;63.20;;;;;;5065665;28;45366;-72
2022/01/27 13:09:35;;;;;;;5.60;5.20;;;15.90;63.20;;;;;;5048971;28;44005;-72
2022/01/27 13:12:18;;;;;;;5.40;5.10;;;15.90;63.30;;;;;;5049739;28;43952;-72
2022/01/27 13:15:02;;;;;;;5.33;5.00;;;15.90;63.30;;;;;;5067088;28;43875;-72
2022/01/27 13:17:37;;;;;;;5.37;5.00;;;15.90;63.30;;;;;;5050151;28;45723;-72
2022/01/27 13:20:23;;;;;;;5.17;4.87;;;15.90;63.60;;;;;;5049710;28;44096;-71
2022/01/27 13:22:56;;;;;;;5.17;4.87;;;16.00;63.50;;;;;;5065847;28;44184;-71
2022/01/27 13:25:25;;;;;;;5.17;4.77;;;16.10;63.00;;;;;;5066322;28;43596;-71
2022/01/27 13:28:05;;;;;;;5.10;4.80;;;16.30;62.60;;;;;;5065184;28;44517;-71
2022/01/27 13:30:36;;;;;;;5.30;5.00;;;16.40;62.20;;;;;;5065574;28;45580;-72
2022/01/27 13:33:09;;;;;;;5.10;4.80;;;16.40;61.90;;;;;;5066358;28;44018;-72
2022/01/27 13:38:24;;;;;;;5.67;5.27;;;16.30;62.20;;;;;;5064110;28;44890;-72
2022/01/27 13:41:19;;;;;;;5.13;4.83;;;16.20;62.40;;;;;;5065335;28;44159;-72
2022/01/27 13:43:49;;;;;;;5.47;5.07;;;16.10;62.50;;;;;;5051503;28;43470;-72
2022/01/27 13:46:37;;;;;;;5.23;4.97;;;16.10;63.40;;;;;;5032605;28;44058;-72
2022/01/27 13:49:07;;;;;;;4.83;4.63;;;16.10;62.90;;;;;;5065597;28;45088;-72